sensor_id;sensor_type;location;lat;lon;timestamp;P1;durP1;ratioP1;P2;durP2;ratioP2
359;SDS011;168;48.872;9.226;2023-01-20T00:02:06;15.67;;;14.07;;
359;SDS011;168;48.872;9.226;2023-01-20T00:04:33;15.70;;;14.10;;
359;SDS011;168;48.872;9.226;2023-01-20T00:07:01;16.70;;;14.50;;
359;SDS011;168;48.872;9.226;2023-01-20T00:09:28;15.23;;;13.80;;
359;SDS011;168;48.872;9.226;2023-01-20T00:11:56;18.07;;;16.37;;
359;SDS011;168;48.872;9.226;2023-01-20T00:14:23;16.97;;;15.17;;
359;SDS011;168;48.872;9.226;2023-01-20T00:16:53;17.17;;;15.47;;
359;SDS011;168;48.872;9.226;2023-01-20T00:19:22;16.80;;;15.13;;
359;SDS011;168;48.872;9.226;2023-01-20T00:21:49;16.97;;;15.17;;
359;SDS011;168;48.872;9.226;2023-01-20T00:24:17;16.00;;;14.60;;
359;SDS011;168;48.872;9.226;2023-01-20T00:26:45;17.93;;;16.13;;
359;SDS011;168;48.872;9.226;2023-01-20T00:29:13;17.23;;;15.53;;
359;SDS011;168;48.872;9.226;2023-01-20T00:31:40;16.50;;;14.77;;
359;SDS011;168;48.872;9.226;2023-01-20T00:34:09;16.20;;;13.87;;
359;SDS011;168;48.872;9.226;2023-01-20T00:36:37;17.63;;;15.67;;
359;SDS011;168;48.872;9.226;2023-01-20T00:39:04;17.70;;;15.00;;
359;SDS011;168;48.872;9.226;2023-01-20T00:41:32;17.43;;;15.60;;
359;SDS011;168;48.872;9.226;2023-01-20T00:43:59;16.97;;;14.60;;
359;SDS011;168;48.872;9.226;2023-01-20T00:46:27;16.27;;;14.57;;
359;SDS011;168;48.872;9.226;2023-01-20T00:48:54;17.70;;;15.93;;
359;SDS011;168;48.872;9.226;2023-01-20T00:51:23;17.33;;;15.23;;
359;SDS011;168;48.872;9.226;2023-01-20T00:53:51;17.17;;;15.40;;
359;SDS011;168;48.872;9.226;2023-01-20T00:56:18;17.07;;;15.37;;
359;SDS011;168;48.872;9.226;2023-01-20T00:58:45;15.73;;;14.23;;
359;SDS011;168;48.872;9.226;2023-01-20T01:01:13;15.93;;;14.37;;
359;SDS011;168;48.872;9.226;2023-01-20T01:03:41;16.33;;;14.63;;
359;SDS011;168;48.872;9.226;2023-01-20T01:06:10;16.80;;;15.07;;
359;SDS011;168;48.872;9.226;2023-01-20T01:08:40;17.27;;;14.60;;
359;SDS011;168;48.872;9.226;2023-01-20T01:11:08;17.50;;;15.60;;
359;SDS011;168;48.872;9.226;2023-01-20T01:13:37;16.63;;;14.77;;
359;SDS011;168;48.872;9.226;2023-01-20T01:16:08;17.33;;;15.53;;
359;SDS011;168;48.872;9.226;2023-01-20T01:18:37;16.57;;;14.87;;
359;SDS011;168;48.872;9.226;2023-01-20T01:21:05;15.63;;;14.13;;
359;SDS011;168;48.872;9.226;2023-01-20T01:23:34;17.87;;;15.97;;
359;SDS011;168;48.872;9.226;2023-01-20T01:26:02;17.47;;;15.40;;
359;SDS011;168;48.872;9.226;2023-01-20T01:28:30;18.37;;;15.40;;
359;SDS011;168;48.872;9.226;2023-01-20T01:30:59;17.30;;;15.37;;
359;SDS011;168;48.872;9.226;2023-01-20T01:33:27;18.20;;;16.30;;
359;SDS011;168;48.872;9.226;2023-01-20T01:35:54;17.17;;;15.60;;
359;SDS011;168;48.872;9.226;2023-01-20T01:38:22;17.93;;;15.93;;
359;SDS011;168;48.872;9.226;2023-01-20T01:40:51;15.87;;;14.20;;
359;SDS011;168;48.872;9.226;2023-01-20T01:43:22;16.77;;;14.90;;
359;SDS011;168;48.872;9.226;2023-01-20T01:45:51;17.70;;;15.80;;
359;SDS011;168;48.872;9.226;2023-01-20T01:48:19;18.17;;;14.90;;
359;SDS011;168;48.872;9.226;2023-01-20T01:50:50;18.03;;;16.23;;
359;SDS011;168;48.872;9.226;2023-01-20T01:53:21;17.53;;;15.70;;
359;SDS011;168;48.872;9.226;2023-01-20T01:55:50;18.10;;;16.40;;
359;SDS011;168;48.872;9.226;2023-01-20T01:58:23;17.20;;;15.40;;
359;SDS011;168;48.872;9.226;2023-01-20T02:00:54;21.03;;;16.07;;
359;SDS011;168;48.872;9.226;2023-01-20T02:03:21;18.40;;;16.60;;
359;SDS011;168;48.872;9.226;2023-01-20T02:05:50;16.63;;;15.03;;
359;SDS011;168;48.872;9.226;2023-01-20T02:08:18;17.33;;;15.63;;
359;SDS011;168;48.872;9.226;2023-01-20T02:10:46;17.37;;;15.70;;
359;SDS011;168;48.872;9.226;2023-01-20T02:13:14;17.97;;;16.13;;
359;SDS011;168;48.872;9.226;2023-01-20T02:15:43;17.90;;;15.20;;
359;SDS011;168;48.872;9.226;2023-01-20T02:18:28;17.63;;;15.73;;
359;SDS011;168;48.872;9.226;2023-01-20T02:24:16;16.33;;;14.63;;
359;SDS011;168;48.872;9.226;2023-01-20T02:27:12;17.07;;;15.27;;
359;SDS011;168;48.872;9.226;2023-01-20T02:32:40;17.70;;;15.70;;
359;SDS011;168;48.872;9.226;2023-01-20T02:35:16;16.60;;;14.87;;
359;SDS011;168;48.872;9.226;2023-01-20T02:37:52;17.73;;;15.93;;
359;SDS011;168;48.872;9.226;2023-01-20T02:40:27;17.10;;;15.30;;
359;SDS011;168;48.872;9.226;2023-01-20T02:43:00;18.40;;;16.40;;
359;SDS011;168;48.872;9.226;2023-01-20T02:45:35;17.17;;;15.33;;
359;SDS011;168;48.872;9.226;2023-01-20T02:48:12;22.73;;;16.23;;
359;SDS011;168;48.872;9.226;2023-01-20T02:50:46;18.80;;;15.90;;
359;SDS011;168;48.872;9.226;2023-01-20T02:53:19;18.73;;;16.73;;
359;SDS011;168;48.872;9.226;2023-01-20T02:55:51;19.07;;;17.00;;
359;SDS011;168;48.872;9.226;2023-01-20T02:58:22;17.63;;;15.83;;
359;SDS011;168;48.872;9.226;2023-01-20T03:00:54;17.10;;;15.30;;
359;SDS011;168;48.872;9.226;2023-01-20T03:03:26;18.00;;;15.43;;
359;SDS011;168;48.872;9.226;2023-01-20T03:05:58;16.87;;;15.07;;
359;SDS011;168;48.872;9.226;2023-01-20T03:08:32;17.03;;;15.27;;
359;SDS011;168;48.872;9.226;2023-01-20T03:11:03;18.50;;;15.90;;
359;SDS011;168;48.872;9.226;2023-01-20T03:13:33;18.03;;;15.60;;
359;SDS011;168;48.872;9.226;2023-01-20T03:16:05;16.30;;;14.73;;
359;SDS011;168;48.872;9.226;2023-01-20T03:18:37;17.47;;;15.60;;
359;SDS011;168;48.872;9.226;2023-01-20T03:21:07;17.57;;;15.77;;
359;SDS011;168;48.872;9.226;2023-01-20T03:23:36;18.77;;;16.80;;
359;SDS011;168;48.872;9.226;2023-01-20T03:26:07;18.13;;;16.33;;
359;SDS011;168;48.872;9.226;2023-01-20T03:28:36;18.60;;;16.47;;
359;SDS011;168;48.872;9.226;2023-01-20T03:31:05;18.40;;;16.57;;
359;SDS011;168;48.872;9.226;2023-01-20T03:33:40;18.77;;;15.50;;
359;SDS011;168;48.872;9.226;2023-01-20T03:36:09;17.93;;;16.03;;
359;SDS011;168;48.872;9.226;2023-01-20T03:38:37;17.03;;;15.23;;
359;SDS011;168;48.872;9.226;2023-01-20T03:41:09;17.30;;;15.60;;
359;SDS011;168;48.872;9.226;2023-01-20T03:43:47;18.80;;;15.50;;
359;SDS011;168;48.872;9.226;2023-01-20T03:46:23;17.73;;;15.93;;
359;SDS011;168;48.872;9.226;2023-01-20T03:48:59;15.40;;;13.90;;
359;SDS011;168;48.872;9.226;2023-01-20T03:51:36;20.23;;;14.70;;
359;SDS011;168;48.872;9.226;2023-01-20T03:54:14;16.67;;;14.83;;
359;SDS011;168;48.872;9.226;2023-01-20T03:56:45;17.50;;;15.50;;
359;SDS011;168;48.872;9.226;2023-01-20T03:59:19;17.87;;;15.37;;
359;SDS011;168;48.872;9.226;2023-01-20T04:01:49;20.17;;;15.97;;
359;SDS011;168;48.872;9.226;2023-01-20T04:04:19;20.27;;;16.40;;
359;SDS011;168;48.872;9.226;2023-01-20T04:06:47;16.20;;;14.60;;
359;SDS011;168;48.872;9.226;2023-01-20T04:09:18;19.17;;;16.00;;
359;SDS011;168;48.872;9.226;2023-01-20T04:11:48;15.60;;;14.13;;
359;SDS011;168;48.872;9.226;2023-01-20T04:14:16;16.50;;;14.03;;
359;SDS011;168;48.872;9.226;2023-01-20T04:16:48;15.23;;;13.57;;
359;SDS011;168;48.872;9.226;2023-01-20T04:19:17;15.30;;;13.60;;
359;SDS011;168;48.872;9.226;2023-01-20T04:21:47;14.33;;;12.83;;
359;SDS011;168;48.872;9.226;2023-01-20T04:24:18;13.30;;;12.10;;
359;SDS011;168;48.872;9.226;2023-01-20T04:26:50;14.00;;;12.60;;
359;SDS011;168;48.872;9.226;2023-01-20T04:29:19;15.10;;;13.50;;
359;SDS011;168;48.872;9.226;2023-01-20T04:31:46;14.73;;;13.23;;
359;SDS011;168;48.872;9.226;2023-01-20T04:34:14;16.80;;;14.80;;
359;SDS011;168;48.872;9.226;2023-01-20T04:36:44;16.37;;;13.90;;
359;SDS011;168;48.872;9.226;2023-01-20T04:39:11;14.80;;;13.30;;
359;SDS011;168;48.872;9.226;2023-01-20T04:41:38;16.03;;;13.80;;
359;SDS011;168;48.872;9.226;2023-01-20T04:44:06;15.23;;;13.63;;
359;SDS011;168;48.872;9.226;2023-01-20T04:46:34;15.40;;;13.83;;
359;SDS011;168;48.872;9.226;2023-01-20T04:49:01;18.53;;;14.00;;
359;SDS011;168;48.872;9.226;2023-01-20T04:51:29;18.40;;;14.63;;
359;SDS011;168;48.872;9.226;2023-01-20T04:53:59;14.73;;;13.33;;
359;SDS011;168;48.872;9.226;2023-01-20T04:56:26;15.27;;;13.73;;
359;SDS011;168;48.872;9.226;2023-01-20T04:58:54;16.70;;;14.70;;
359;SDS011;168;48.872;9.226;2023-01-20T05:01:21;15.40;;;13.80;;
359;SDS011;168;48.872;9.226;2023-01-20T05:03:49;16.63;;;14.83;;
359;SDS011;168;48.872;9.226;2023-01-20T05:06:17;17.03;;;15.23;;
359;SDS011;168;48.872;9.226;2023-01-20T05:08:44;19.13;;;17.00;;
359;SDS011;168;48.872;9.226;2023-01-20T05:11:13;18.80;;;16.27;;
359;SDS011;168;48.872;9.226;2023-01-20T05:13:40;21.97;;;18.37;;
359;SDS011;168;48.872;9.226;2023-01-20T05:16:08;19.43;;;17.43;;
359;SDS011;168;48.872;9.226;2023-01-20T05:18:36;19.60;;;17.60;;
359;SDS011;168;48.872;9.226;2023-01-20T05:21:03;18.40;;;16.70;;
359;SDS011;168;48.872;9.226;2023-01-20T05:23:33;20.37;;;17.33;;
359;SDS011;168;48.872;9.226;2023-01-20T05:26:00;20.70;;;17.70;;
359;SDS011;168;48.872;9.226;2023-01-20T05:28:29;22.90;;;18.83;;
359;SDS011;168;48.872;9.226;2023-01-20T05:30:56;19.03;;;17.07;;
359;SDS011;168;48.872;9.226;2023-01-20T05:33:24;20.30;;;18.20;;
359;SDS011;168;48.872;9.226;2023-01-20T05:35:51;20.57;;;18.40;;
359;SDS011;168;48.872;9.226;2023-01-20T05:38:19;21.27;;;18.97;;
359;SDS011;168;48.872;9.226;2023-01-20T05:40:46;19.13;;;17.43;;
359;SDS011;168;48.872;9.226;2023-01-20T05:43:16;20.13;;;17.50;;
359;SDS011;168;48.872;9.226;2023-01-20T05:45:45;19.50;;;17.40;;
359;SDS011;168;48.872;9.226;2023-01-20T05:48:13;19.33;;;17.40;;
359;SDS011;168;48.872;9.226;2023-01-20T05:50:40;17.97;;;16.07;;
359;SDS011;168;48.872;9.226;2023-01-20T05:53:07;18.57;;;16.67;;
359;SDS011;168;48.872;9.226;2023-01-20T05:55:35;18.50;;;16.60;;
359;SDS011;168;48.872;9.226;2023-01-20T05:58:04;20.63;;;16.50;;
359;SDS011;168;48.872;9.226;2023-01-20T06:00:31;18.53;;;16.63;;
359;SDS011;168;48.872;9.226;2023-01-20T06:03:00;17.27;;;15.20;;
359;SDS011;168;48.872;9.226;2023-01-20T06:05:34;19.30;;;15.87;;
359;SDS011;168;48.872;9.226;2023-01-20T06:08:01;17.90;;;16.10;;
359;SDS011;168;48.872;9.226;2023-01-20T06:10:28;18.70;;;16.00;;
359;SDS011;168;48.872;9.226;2023-01-20T06:12:58;16.87;;;15.07;;
359;SDS011;168;48.872;9.226;2023-01-20T06:15:26;18.50;;;16.03;;
359;SDS011;168;48.872;9.226;2023-01-20T06:17:54;18.50;;;16.50;;
359;SDS011;168;48.872;9.226;2023-01-20T06:20:23;16.20;;;14.40;;
359;SDS011;168;48.872;9.226;2023-01-20T06:22:53;16.13;;;14.40;;
359;SDS011;168;48.872;9.226;2023-01-20T06:25:20;16.17;;;14.20;;
359;SDS011;168;48.872;9.226;2023-01-20T06:27:48;16.33;;;14.63;;
359;SDS011;168;48.872;9.226;2023-01-20T06:30:16;16.33;;;13.93;;
359;SDS011;168;48.872;9.226;2023-01-20T06:32:44;15.07;;;13.57;;
359;SDS011;168;48.872;9.226;2023-01-20T06:35:12;16.13;;;14.53;;
359;SDS011;168;48.872;9.226;2023-01-20T06:37:42;15.53;;;13.93;;
359;SDS011;168;48.872;9.226;2023-01-20T06:40:10;16.67;;;14.90;;
359;SDS011;168;48.872;9.226;2023-01-20T06:42:38;16.87;;;15.17;;
359;SDS011;168;48.872;9.226;2023-01-20T06:45:06;17.17;;;15.40;;
359;SDS011;168;48.872;9.226;2023-01-20T06:47:34;15.77;;;14.17;;
359;SDS011;168;48.872;9.226;2023-01-20T06:50:02;18.83;;;14.47;;
359;SDS011;168;48.872;9.226;2023-01-20T06:52:30;15.20;;;13.70;;
359;SDS011;168;48.872;9.226;2023-01-20T06:54:58;17.53;;;15.63;;
359;SDS011;168;48.872;9.226;2023-01-20T06:57:26;19.13;;;15.10;;
359;SDS011;168;48.872;9.226;2023-01-20T06:59:53;16.10;;;14.40;;
359;SDS011;168;48.872;9.226;2023-01-20T07:02:23;15.50;;;13.90;;
359;SDS011;168;48.872;9.226;2023-01-20T07:04:51;17.37;;;15.57;;
359;SDS011;168;48.872;9.226;2023-01-20T07:07:19;14.97;;;13.40;;
359;SDS011;168;48.872;9.226;2023-01-20T07:09:46;15.20;;;13.60;;
359;SDS011;168;48.872;9.226;2023-01-20T07:12:18;15.03;;;13.57;;
359;SDS011;168;48.872;9.226;2023-01-20T07:14:45;15.30;;;13.70;;
359;SDS011;168;48.872;9.226;2023-01-20T07:17:13;19.00;;;15.20;;
359;SDS011;168;48.872;9.226;2023-01-20T07:19:40;18.73;;;14.30;;
359;SDS011;168;48.872;9.226;2023-01-20T07:22:08;16.93;;;14.50;;
359;SDS011;168;48.872;9.226;2023-01-20T07:24:35;15.40;;;13.90;;
359;SDS011;168;48.872;9.226;2023-01-20T07:27:18;16.90;;;14.20;;
359;SDS011;168;48.872;9.226;2023-01-20T07:29:46;14.47;;;13.07;;
359;SDS011;168;48.872;9.226;2023-01-20T07:32:17;14.30;;;12.80;;
359;SDS011;168;48.872;9.226;2023-01-20T07:34:49;16.33;;;13.53;;
359;SDS011;168;48.872;9.226;2023-01-20T07:37:17;15.80;;;14.20;;
359;SDS011;168;48.872;9.226;2023-01-20T07:39:46;15.97;;;14.20;;
359;SDS011;168;48.872;9.226;2023-01-20T07:42:21;17.40;;;15.37;;
359;SDS011;168;48.872;9.226;2023-01-20T07:44:50;16.00;;;14.37;;
359;SDS011;168;48.872;9.226;2023-01-20T07:47:17;15.60;;;13.50;;
359;SDS011;168;48.872;9.226;2023-01-20T07:49:44;15.77;;;14.10;;
359;SDS011;168;48.872;9.226;2023-01-20T07:52:12;16.60;;;14.90;;
359;SDS011;168;48.872;9.226;2023-01-20T07:54:39;15.40;;;13.80;;
359;SDS011;168;48.872;9.226;2023-01-20T07:57:07;16.13;;;13.90;;
359;SDS011;168;48.872;9.226;2023-01-20T07:59:37;21.20;;;16.90;;
359;SDS011;168;48.872;9.226;2023-01-20T08:02:05;18.07;;;16.13;;
359;SDS011;168;48.872;9.226;2023-01-20T08:04:34;16.47;;;14.60;;
359;SDS011;168;48.872;9.226;2023-01-20T08:07:02;16.80;;;14.77;;
359;SDS011;168;48.872;9.226;2023-01-20T08:09:29;18.00;;;15.63;;
359;SDS011;168;48.872;9.226;2023-01-20T08:11:58;18.60;;;15.85;;
359;SDS011;168;48.872;9.226;2023-01-20T08:14:32;18.50;;;16.40;;
359;SDS011;168;48.872;9.226;2023-01-20T08:17:02;17.50;;;14.67;;
359;SDS011;168;48.872;9.226;2023-01-20T08:19:29;15.53;;;13.50;;
359;SDS011;168;48.872;9.226;2023-01-20T08:21:56;16.90;;;15.17;;
359;SDS011;168;48.872;9.226;2023-01-20T08:24:24;17.10;;;15.20;;
359;SDS011;168;48.872;9.226;2023-01-20T08:26:53;14.50;;;13.10;;
359;SDS011;168;48.872;9.226;2023-01-20T08:29:21;15.57;;;13.93;;
359;SDS011;168;48.872;9.226;2023-01-20T08:31:48;15.37;;;13.87;;
359;SDS011;168;48.872;9.226;2023-01-20T08:34:18;14.97;;;13.47;;
359;SDS011;168;48.872;9.226;2023-01-20T08:36:47;14.20;;;12.70;;
359;SDS011;168;48.872;9.226;2023-01-20T08:39:14;14.67;;;13.37;;
359;SDS011;168;48.872;9.226;2023-01-20T08:41:43;14.70;;;13.23;;
359;SDS011;168;48.872;9.226;2023-01-20T08:44:12;15.40;;;13.80;;
359;SDS011;168;48.872;9.226;2023-01-20T08:46:41;13.80;;;12.30;;
359;SDS011;168;48.872;9.226;2023-01-20T08:49:10;18.47;;;13.73;;
359;SDS011;168;48.872;9.226;2023-01-20T08:51:40;12.87;;;11.60;;
359;SDS011;168;48.872;9.226;2023-01-20T08:54:09;13.43;;;12.03;;
359;SDS011;168;48.872;9.226;2023-01-20T08:56:37;15.77;;;13.27;;
359;SDS011;168;48.872;9.226;2023-01-20T08:59:04;14.60;;;12.27;;
359;SDS011;168;48.872;9.226;2023-01-20T09:01:33;15.70;;;14.00;;
359;SDS011;168;48.872;9.226;2023-01-20T09:04:02;14.23;;;12.63;;
359;SDS011;168;48.872;9.226;2023-01-20T09:06:35;14.20;;;12.30;;
359;SDS011;168;48.872;9.226;2023-01-20T09:09:06;12.70;;;11.50;;
359;SDS011;168;48.872;9.226;2023-01-20T09:11:34;14.98;;;13.20;;
359;SDS011;168;48.872;9.226;2023-01-20T09:14:02;13.83;;;12.43;;
359;SDS011;168;48.872;9.226;2023-01-20T09:16:30;15.00;;;12.80;;
359;SDS011;168;48.872;9.226;2023-01-20T09:18:57;16.90;;;13.37;;
359;SDS011;168;48.872;9.226;2023-01-20T09:21:37;13.50;;;12.10;;
359;SDS011;168;48.872;9.226;2023-01-20T09:24:06;14.63;;;11.80;;
359;SDS011;168;48.872;9.226;2023-01-20T09:26:34;13.00;;;11.60;;
359;SDS011;168;48.872;9.226;2023-01-20T09:29:04;13.47;;;12.17;;
359;SDS011;168;48.872;9.226;2023-01-20T09:31:36;14.15;;;12.82;;
359;SDS011;168;48.872;9.226;2023-01-20T09:34:05;13.63;;;12.37;;
359;SDS011;168;48.872;9.226;2023-01-20T09:36:33;14.33;;;13.00;;
359;SDS011;168;48.872;9.226;2023-01-20T09:39:01;16.67;;;13.57;;
359;SDS011;168;48.872;9.226;2023-01-20T09:41:47;16.10;;;14.60;;
359;SDS011;168;48.872;9.226;2023-01-20T09:47:24;14.60;;;13.27;;
359;SDS011;168;48.872;9.226;2023-01-20T09:50:02;16.00;;;13.57;;
359;SDS011;168;48.872;9.226;2023-01-20T09:52:58;15.50;;;13.40;;
359;SDS011;168;48.872;9.226;2023-01-20T09:55:36;13.60;;;12.30;;
359;SDS011;168;48.872;9.226;2023-01-20T09:58:12;14.57;;;12.73;;
359;SDS011;168;48.872;9.226;2023-01-20T10:00:45;18.17;;;12.40;;
359;SDS011;168;48.872;9.226;2023-01-20T10:03:16;13.97;;;12.60;;
359;SDS011;168;48.872;9.226;2023-01-20T10:05:47;13.83;;;12.40;;
359;SDS011;168;48.872;9.226;2023-01-20T10:08:17;14.47;;;12.97;;
359;SDS011;168;48.872;9.226;2023-01-20T10:10:50;12.93;;;11.60;;
359;SDS011;168;48.872;9.226;2023-01-20T10:13:24;14.33;;;12.93;;
359;SDS011;168;48.872;9.226;2023-01-20T10:15:55;13.43;;;11.87;;
359;SDS011;168;48.872;9.226;2023-01-20T10:18:24;11.77;;;10.67;;
359;SDS011;168;48.872;9.226;2023-01-20T10:21:01;12.50;;;11.20;;
359;SDS011;168;48.872;9.226;2023-01-20T10:23:36;14.37;;;11.33;;
359;SDS011;168;48.872;9.226;2023-01-20T10:26:09;13.10;;;11.30;;
359;SDS011;168;48.872;9.226;2023-01-20T10:28:43;13.30;;;11.67;;
359;SDS011;168;48.872;9.226;2023-01-20T10:31:13;12.93;;;11.03;;
359;SDS011;168;48.872;9.226;2023-01-20T10:33:47;12.63;;;11.10;;
359;SDS011;168;48.872;9.226;2023-01-20T10:36:15;13.70;;;10.77;;
359;SDS011;168;48.872;9.226;2023-01-20T10:38:49;12.00;;;10.77;;
359;SDS011;168;48.872;9.226;2023-01-20T10:41:21;11.00;;;9.90;;
359;SDS011;168;48.872;9.226;2023-01-20T10:43:59;11.95;;;10.68;;
359;SDS011;168;48.872;9.226;2023-01-20T10:46:36;11.80;;;10.70;;
359;SDS011;168;48.872;9.226;2023-01-20T10:49:22;11.53;;;10.43;;
359;SDS011;168;48.872;9.226;2023-01-20T10:52:11;11.07;;;10.00;;
359;SDS011;168;48.872;9.226;2023-01-20T10:54:48;15.20;;;10.53;;
359;SDS011;168;48.872;9.226;2023-01-20T10:57:25;11.13;;;9.40;;
359;SDS011;168;48.872;9.226;2023-01-20T10:59:54;10.80;;;8.57;;
359;SDS011;168;48.872;9.226;2023-01-20T11:02:27;10.13;;;8.80;;
359;SDS011;168;48.872;9.226;2023-01-20T11:04:56;11.53;;;8.93;;
359;SDS011;168;48.872;9.226;2023-01-20T11:07:26;10.87;;;9.80;;
359;SDS011;168;48.872;9.226;2023-01-20T11:09:54;12.10;;;10.23;;
359;SDS011;168;48.872;9.226;2023-01-20T11:12:22;11.20;;;9.57;;
359;SDS011;168;48.872;9.226;2023-01-20T11:14:54;11.30;;;10.30;;
359;SDS011;168;48.872;9.226;2023-01-20T11:17:25;11.50;;;9.47;;
359;SDS011;168;48.872;9.226;2023-01-20T11:19:53;9.53;;;8.30;;
359;SDS011;168;48.872;9.226;2023-01-20T11:22:24;10.73;;;9.63;;
359;SDS011;168;48.872;9.226;2023-01-20T11:24:55;15.03;;;9.70;;
359;SDS011;168;48.872;9.226;2023-01-20T11:27:25;9.03;;;8.17;;
359;SDS011;168;48.872;9.226;2023-01-20T11:29:58;10.20;;;9.20;;
359;SDS011;168;48.872;9.226;2023-01-20T11:32:28;9.63;;;8.63;;
359;SDS011;168;48.872;9.226;2023-01-20T11:34:57;8.97;;;8.07;;
359;SDS011;168;48.872;9.226;2023-01-20T11:37:28;8.50;;;7.50;;
359;SDS011;168;48.872;9.226;2023-01-20T11:40:03;8.10;;;7.30;;
359;SDS011;168;48.872;9.226;2023-01-20T11:42:43;10.43;;;9.43;;
359;SDS011;168;48.872;9.226;2023-01-20T11:45:24;11.63;;;9.00;;
359;SDS011;168;48.872;9.226;2023-01-20T11:47:58;10.37;;;9.10;;
359;SDS011;168;48.872;9.226;2023-01-20T11:50:29;11.43;;;8.57;;
359;SDS011;168;48.872;9.226;2023-01-20T11:53:12;7.47;;;6.30;;
359;SDS011;168;48.872;9.226;2023-01-20T11:55:50;7.60;;;6.87;;
359;SDS011;168;48.872;9.226;2023-01-20T11:58:20;9.43;;;7.00;;
359;SDS011;168;48.872;9.226;2023-01-20T12:00:52;10.17;;;9.27;;
359;SDS011;168;48.872;9.226;2023-01-20T12:03:31;10.47;;;9.37;;
359;SDS011;168;48.872;9.226;2023-01-20T12:06:17;11.00;;;9.97;;
359;SDS011;168;48.872;9.226;2023-01-20T12:08:50;11.27;;;10.17;;
359;SDS011;168;48.872;9.226;2023-01-20T12:11:22;10.97;;;9.80;;
359;SDS011;168;48.872;9.226;2023-01-20T12:13:56;10.50;;;9.40;;
359;SDS011;168;48.872;9.226;2023-01-20T12:19:46;11.90;;;9.50;;
359;SDS011;168;48.872;9.226;2023-01-20T12:22:40;9.70;;;8.27;;
359;SDS011;168;48.872;9.226;2023-01-20T12:25:15;9.00;;;8.13;;
359;SDS011;168;48.872;9.226;2023-01-20T12:27:47;11.37;;;8.90;;
359;SDS011;168;48.872;9.226;2023-01-20T12:33:16;9.87;;;8.20;;
359;SDS011;168;48.872;9.226;2023-01-20T12:35:58;9.80;;;8.83;;
359;SDS011;168;48.872;9.226;2023-01-20T12:38:38;7.90;;;7.10;;
359;SDS011;168;48.872;9.226;2023-01-20T12:41:13;7.70;;;7.00;;
359;SDS011;168;48.872;9.226;2023-01-20T12:43:52;7.30;;;6.60;;
359;SDS011;168;48.872;9.226;2023-01-20T12:46:30;6.47;;;5.87;;
359;SDS011;168;48.872;9.226;2023-01-20T12:49:22;6.50;;;5.93;;
359;SDS011;168;48.872;9.226;2023-01-20T12:52:15;6.13;;;5.53;;
359;SDS011;168;48.872;9.226;2023-01-20T12:54:58;10.13;;;5.93;;
359;SDS011;168;48.872;9.226;2023-01-20T12:57:44;5.60;;;4.70;;
359;SDS011;168;48.872;9.226;2023-01-20T13:00:35;6.93;;;5.60;;
359;SDS011;168;48.872;9.226;2023-01-20T13:03:30;7.13;;;6.40;;
359;SDS011;168;48.872;9.226;2023-01-20T13:09:21;7.43;;;6.33;;
359;SDS011;168;48.872;9.226;2023-01-20T13:12:01;8.60;;;6.53;;
359;SDS011;168;48.872;9.226;2023-01-20T13:14:41;7.97;;;7.17;;
359;SDS011;168;48.872;9.226;2023-01-20T13:17:16;8.40;;;7.60;;
359;SDS011;168;48.872;9.226;2023-01-20T13:19:48;9.70;;;7.90;;
359;SDS011;168;48.872;9.226;2023-01-20T13:22:20;8.60;;;7.70;;
359;SDS011;168;48.872;9.226;2023-01-20T13:24:49;7.97;;;7.17;;
359;SDS011;168;48.872;9.226;2023-01-20T13:27:20;9.23;;;7.77;;
359;SDS011;168;48.872;9.226;2023-01-20T13:29:51;7.77;;;7.07;;
359;SDS011;168;48.872;9.226;2023-01-20T13:32:30;10.40;;;7.63;;
359;SDS011;168;48.872;9.226;2023-01-20T13:34:59;7.90;;;7.10;;
359;SDS011;168;48.872;9.226;2023-01-20T13:37:29;8.70;;;6.83;;
359;SDS011;168;48.872;9.226;2023-01-20T13:40:00;7.90;;;7.10;;
359;SDS011;168;48.872;9.226;2023-01-20T13:45:16;6.43;;;5.80;;
359;SDS011;168;48.872;9.226;2023-01-20T13:47:49;7.90;;;6.30;;
359;SDS011;168;48.872;9.226;2023-01-20T13:50:22;8.23;;;6.70;;
359;SDS011;168;48.872;9.226;2023-01-20T13:53:03;7.37;;;6.67;;
359;SDS011;168;48.872;9.226;2023-01-20T13:55:50;8.40;;;7.50;;
359;SDS011;168;48.872;9.226;2023-01-20T13:58:22;5.93;;;5.40;;
359;SDS011;168;48.872;9.226;2023-01-20T14:00:51;8.20;;;5.90;;
359;SDS011;168;48.872;9.226;2023-01-20T14:03:21;6.30;;;5.67;;
359;SDS011;168;48.872;9.226;2023-01-20T14:05:52;6.30;;;5.47;;
359;SDS011;168;48.872;9.226;2023-01-20T14:08:23;6.40;;;5.70;;
359;SDS011;168;48.872;9.226;2023-01-20T14:11:01;7.63;;;5.50;;
359;SDS011;168;48.872;9.226;2023-01-20T14:13:32;5.80;;;4.97;;
359;SDS011;168;48.872;9.226;2023-01-20T14:15:59;6.63;;;5.77;;
359;SDS011;168;48.872;9.226;2023-01-20T14:18:27;6.13;;;5.50;;
359;SDS011;168;48.872;9.226;2023-01-20T14:20:55;6.80;;;5.87;;
359;SDS011;168;48.872;9.226;2023-01-20T14:23:31;5.20;;;4.77;;
359;SDS011;168;48.872;9.226;2023-01-20T14:26:02;6.90;;;6.10;;
359;SDS011;168;48.872;9.226;2023-01-20T14:28:31;5.17;;;4.77;;
359;SDS011;168;48.872;9.226;2023-01-20T14:31:13;6.53;;;5.90;;
359;SDS011;168;48.872;9.226;2023-01-20T14:33:52;8.90;;;6.27;;
359;SDS011;168;48.872;9.226;2023-01-20T14:36:22;7.83;;;5.33;;
359;SDS011;168;48.872;9.226;2023-01-20T14:38:53;6.90;;;6.27;;
359;SDS011;168;48.872;9.226;2023-01-20T14:41:23;6.27;;;5.77;;
359;SDS011;168;48.872;9.226;2023-01-20T14:44:00;9.13;;;6.50;;
359;SDS011;168;48.872;9.226;2023-01-20T14:46:28;13.33;;;6.40;;
359;SDS011;168;48.872;9.226;2023-01-20T14:48:58;8.33;;;6.30;;
359;SDS011;168;48.872;9.226;2023-01-20T14:51:27;6.77;;;6.07;;
359;SDS011;168;48.872;9.226;2023-01-20T14:57:18;5.50;;;5.00;;
359;SDS011;168;48.872;9.226;2023-01-20T15:00:00;7.83;;;5.20;;
359;SDS011;168;48.872;9.226;2023-01-20T15:02:41;5.50;;;5.00;;
359;SDS011;168;48.872;9.226;2023-01-20T15:05:17;6.13;;;4.90;;
359;SDS011;168;48.872;9.226;2023-01-20T15:07:46;6.70;;;4.40;;
359;SDS011;168;48.872;9.226;2023-01-20T15:10:14;5.10;;;4.70;;
359;SDS011;168;48.872;9.226;2023-01-20T15:12:52;5.70;;;4.78;;
359;SDS011;168;48.872;9.226;2023-01-20T15:15:27;5.50;;;4.97;;
359;SDS011;168;48.872;9.226;2023-01-20T15:18:13;4.78;;;3.97;;
359;SDS011;168;48.872;9.226;2023-01-20T15:20:43;4.40;;;4.00;;
359;SDS011;168;48.872;9.226;2023-01-20T15:23:14;5.70;;;4.20;;
359;SDS011;168;48.872;9.226;2023-01-20T15:25:46;4.40;;;4.00;;
359;SDS011;168;48.872;9.226;2023-01-20T15:28:26;5.23;;;4.77;;
359;SDS011;168;48.872;9.226;2023-01-20T15:30:56;8.87;;;4.10;;
359;SDS011;168;48.872;9.226;2023-01-20T15:33:24;6.37;;;4.57;;
359;SDS011;168;48.872;9.226;2023-01-20T15:35:52;4.70;;;4.30;;
359;SDS011;168;48.872;9.226;2023-01-20T15:38:21;4.33;;;3.93;;
359;SDS011;168;48.872;9.226;2023-01-20T15:40:49;6.63;;;4.87;;
359;SDS011;168;48.872;9.226;2023-01-20T15:43:17;5.27;;;4.17;;
359;SDS011;168;48.872;9.226;2023-01-20T15:45:47;5.43;;;4.93;;
359;SDS011;168;48.872;9.226;2023-01-20T15:48:15;5.93;;;4.90;;
359;SDS011;168;48.872;9.226;2023-01-20T15:50:45;5.03;;;4.53;;
359;SDS011;168;48.872;9.226;2023-01-20T15:53:13;7.10;;;5.60;;
359;SDS011;168;48.872;9.226;2023-01-20T15:55:44;5.70;;;4.90;;
359;SDS011;168;48.872;9.226;2023-01-20T15:58:18;5.15;;;4.65;;
359;SDS011;168;48.872;9.226;2023-01-20T16:00:49;5.77;;;5.13;;
359;SDS011;168;48.872;9.226;2023-01-20T16:03:17;10.40;;;6.17;;
359;SDS011;168;48.872;9.226;2023-01-20T16:05:46;12.80;;;6.87;;
359;SDS011;168;48.872;9.226;2023-01-20T16:08:15;5.93;;;5.43;;
359;SDS011;168;48.872;9.226;2023-01-20T16:10:43;5.80;;;5.30;;
359;SDS011;168;48.872;9.226;2023-01-20T16:13:11;5.47;;;4.90;;